sensor_id;sensor_type;location;lat;lon;timestamp;P1;durP1;ratioP1;P2;durP2;ratioP2
21769;SDS011;11046;49.558;8.674;2024-01-16T00:00:18;12.07;;;6.20;;
21769;SDS011;11046;49.558;8.674;2024-01-16T00:03:18;17.63;;;6.77;;
21769;SDS011;11046;49.558;8.674;2024-01-16T00:06:19;14.87;;;5.97;;
21769;SDS011;11046;49.558;8.674;2024-01-16T00:09:20;16.40;;;7.00;;
21769;SDS011;11046;49.558;8.674;2024-01-16T00:12:20;17.53;;;6.77;;
21769;SDS011;11046;49.558;8.674;2024-01-16T00:15:21;13.87;;;6.37;;
21769;SDS011;11046;49.558;8.674;2024-01-16T00:18:22;13.43;;;6.60;;
21769;SDS011;11046;49.558;8.674;2024-01-16T00:21:22;17.80;;;6.47;;
21769;SDS011;11046;49.558;8.674;2024-01-16T00:24:23;14.37;;;6.40;;
21769;SDS011;11046;49.558;8.674;2024-01-16T00:27:24;12.80;;;6.13;;
21769;SDS011;11046;49.558;8.674;2024-01-16T00:30:24;15.33;;;7.00;;
21769;SDS011;11046;49.558;8.674;2024-01-16T00:33:25;12.80;;;6.60;;
21769;SDS011;11046;49.558;8.674;2024-01-16T00:36:27;15.07;;;6.60;;
21769;SDS011;11046;49.558;8.674;2024-01-16T00:39:28;14.47;;;6.93;;
21769;SDS011;11046;49.558;8.674;2024-01-16T00:42:29;14.50;;;7.33;;
21769;SDS011;11046;49.558;8.674;2024-01-16T00:45:30;14.53;;;7.07;;
21769;SDS011;11046;49.558;8.674;2024-01-16T00:48:30;14.40;;;7.07;;
21769;SDS011;11046;49.558;8.674;2024-01-16T00:51:31;16.60;;;7.47;;
21769;SDS011;11046;49.558;8.674;2024-01-16T00:54:32;13.10;;;6.47;;
21769;SDS011;11046;49.558;8.674;2024-01-16T00:57:32;15.53;;;6.67;;
21769;SDS011;11046;49.558;8.674;2024-01-16T01:00:33;13.97;;;6.63;;
21769;SDS011;11046;49.558;8.674;2024-01-16T01:03:35;13.07;;;6.30;;
21769;SDS011;11046;49.558;8.674;2024-01-16T01:06:35;19.90;;;6.67;;
21769;SDS011;11046;49.558;8.674;2024-01-16T01:09:36;13.07;;;6.40;;
21769;SDS011;11046;49.558;8.674;2024-01-16T01:12:37;13.03;;;6.17;;
21769;SDS011;11046;49.558;8.674;2024-01-16T01:15:37;11.93;;;6.40;;
21769;SDS011;11046;49.558;8.674;2024-01-16T01:18:38;18.27;;;6.90;;
21769;SDS011;11046;49.558;8.674;2024-01-16T01:21:39;16.40;;;7.47;;
21769;SDS011;11046;49.558;8.674;2024-01-16T01:24:40;17.73;;;7.40;;
21769;SDS011;11046;49.558;8.674;2024-01-16T01:27:40;17.73;;;7.67;;
21769;SDS011;11046;49.558;8.674;2024-01-16T01:30:41;18.67;;;7.77;;
21769;SDS011;11046;49.558;8.674;2024-01-16T01:33:42;14.57;;;6.30;;
21769;SDS011;11046;49.558;8.674;2024-01-16T01:36:42;15.50;;;7.53;;
21769;SDS011;11046;49.558;8.674;2024-01-16T01:39:43;14.33;;;6.90;;
21769;SDS011;11046;49.558;8.674;2024-01-16T01:42:44;16.33;;;6.57;;
21769;SDS011;11046;49.558;8.674;2024-01-16T01:45:44;18.87;;;7.10;;
21769;SDS011;11046;49.558;8.674;2024-01-16T01:48:57;11.03;;;6.60;;
21769;SDS011;11046;49.558;8.674;2024-01-16T01:51:57;16.77;;;6.43;;
21769;SDS011;11046;49.558;8.674;2024-01-16T01:54:58;14.23;;;6.60;;
21769;SDS011;11046;49.558;8.674;2024-01-16T01:57:59;14.87;;;6.70;;
21769;SDS011;11046;49.558;8.674;2024-01-16T02:01:01;19.17;;;6.23;;
21769;SDS011;11046;49.558;8.674;2024-01-16T02:04:03;12.87;;;6.30;;
21769;SDS011;11046;49.558;8.674;2024-01-16T02:07:05;14.20;;;6.80;;
21769;SDS011;11046;49.558;8.674;2024-01-16T02:10:07;16.70;;;6.90;;
21769;SDS011;11046;49.558;8.674;2024-01-16T02:13:07;17.00;;;6.83;;
21769;SDS011;11046;49.558;8.674;2024-01-16T02:16:21;15.93;;;6.73;;
21769;SDS011;11046;49.558;8.674;2024-01-16T02:19:22;17.37;;;8.10;;
21769;SDS011;11046;49.558;8.674;2024-01-16T02:22:25;15.77;;;6.60;;
21769;SDS011;11046;49.558;8.674;2024-01-16T02:25:29;15.73;;;7.27;;
21769;SDS011;11046;49.558;8.674;2024-01-16T02:28:30;15.00;;;7.43;;
21769;SDS011;11046;49.558;8.674;2024-01-16T02:31:31;17.70;;;7.50;;
21769;SDS011;11046;49.558;8.674;2024-01-16T02:34:32;17.50;;;7.50;;
21769;SDS011;11046;49.558;8.674;2024-01-16T02:37:33;15.07;;;6.90;;
21769;SDS011;11046;49.558;8.674;2024-01-16T02:40:33;16.70;;;6.93;;
21769;SDS011;11046;49.558;8.674;2024-01-16T02:46:38;16.80;;;6.93;;
21769;SDS011;11046;49.558;8.674;2024-01-16T02:49:39;18.87;;;7.67;;
21769;SDS011;11046;49.558;8.674;2024-01-16T02:52:40;16.70;;;7.53;;
21769;SDS011;11046;49.558;8.674;2024-01-16T02:55:40;17.60;;;7.63;;
21769;SDS011;11046;49.558;8.674;2024-01-16T02:58:41;18.10;;;7.17;;
21769;SDS011;11046;49.558;8.674;2024-01-16T03:01:42;18.03;;;7.40;;
21769;SDS011;11046;49.558;8.674;2024-01-16T03:04:43;15.13;;;7.63;;
21769;SDS011;11046;49.558;8.674;2024-01-16T03:07:43;15.60;;;7.53;;
21769;SDS011;11046;49.558;8.674;2024-01-16T03:10:44;18.87;;;7.87;;
21769;SDS011;11046;49.558;8.674;2024-01-16T03:13:45;15.17;;;7.53;;
21769;SDS011;11046;49.558;8.674;2024-01-16T03:16:45;18.23;;;8.30;;
21769;SDS011;11046;49.558;8.674;2024-01-16T03:19:46;21.67;;;7.67;;
21769;SDS011;11046;49.558;8.674;2024-01-16T03:22:46;16.80;;;7.23;;
21769;SDS011;11046;49.558;8.674;2024-01-16T03:25:47;15.93;;;7.33;;
21769;SDS011;11046;49.558;8.674;2024-01-16T03:28:48;16.10;;;7.23;;
21769;SDS011;11046;49.558;8.674;2024-01-16T03:31:48;15.23;;;7.20;;
21769;SDS011;11046;49.558;8.674;2024-01-16T03:34:49;19.53;;;7.20;;
21769;SDS011;11046;49.558;8.674;2024-01-16T03:37:49;16.93;;;7.90;;
21769;SDS011;11046;49.558;8.674;2024-01-16T03:40:50;16.30;;;7.90;;
21769;SDS011;11046;49.558;8.674;2024-01-16T03:43:51;17.77;;;7.73;;
21769;SDS011;11046;49.558;8.674;2024-01-16T03:46:55;19.37;;;8.13;;
21769;SDS011;11046;49.558;8.674;2024-01-16T03:49:55;19.60;;;7.20;;
21769;SDS011;11046;49.558;8.674;2024-01-16T03:52:56;17.10;;;7.60;;
21769;SDS011;11046;49.558;8.674;2024-01-16T03:55:56;19.60;;;7.37;;
21769;SDS011;11046;49.558;8.674;2024-01-16T03:58:57;19.47;;;7.30;;
21769;SDS011;11046;49.558;8.674;2024-01-16T04:01:58;16.83;;;7.47;;
21769;SDS011;11046;49.558;8.674;2024-01-16T04:05:00;22.60;;;8.30;;
21769;SDS011;11046;49.558;8.674;2024-01-16T04:08:00;19.50;;;7.63;;
21769;SDS011;11046;49.558;8.674;2024-01-16T04:11:01;20.10;;;8.07;;
21769;SDS011;11046;49.558;8.674;2024-01-16T04:14:02;16.70;;;7.07;;
21769;SDS011;11046;49.558;8.674;2024-01-16T04:17:02;18.63;;;7.93;;
21769;SDS011;11046;49.558;8.674;2024-01-16T04:20:03;19.33;;;7.57;;
21769;SDS011;11046;49.558;8.674;2024-01-16T04:23:06;16.93;;;7.13;;
21769;SDS011;11046;49.558;8.674;2024-01-16T04:26:07;16.33;;;7.17;;
21769;SDS011;11046;49.558;8.674;2024-01-16T04:29:08;18.37;;;8.47;;
21769;SDS011;11046;49.558;8.674;2024-01-16T04:32:09;17.40;;;7.47;;
21769;SDS011;11046;49.558;8.674;2024-01-16T04:35:10;15.47;;;7.17;;
21769;SDS011;11046;49.558;8.674;2024-01-16T04:38:11;18.43;;;7.40;;
21769;SDS011;11046;49.558;8.674;2024-01-16T04:41:11;17.00;;;7.90;;
21769;SDS011;11046;49.558;8.674;2024-01-16T04:44:12;17.53;;;7.37;;
21769;SDS011;11046;49.558;8.674;2024-01-16T04:47:13;18.27;;;7.97;;
21769;SDS011;11046;49.558;8.674;2024-01-16T04:50:13;15.07;;;7.90;;
21769;SDS011;11046;49.558;8.674;2024-01-16T04:53:14;19.90;;;7.97;;
21769;SDS011;11046;49.558;8.674;2024-01-16T04:56:15;20.27;;;7.77;;
21769;SDS011;11046;49.558;8.674;2024-01-16T04:59:16;15.37;;;7.30;;
21769;SDS011;11046;49.558;8.674;2024-01-16T05:02:17;15.47;;;7.57;;
21769;SDS011;11046;49.558;8.674;2024-01-16T05:05:18;20.63;;;7.67;;
21769;SDS011;11046;49.558;8.674;2024-01-16T05:08:19;18.23;;;7.30;;
21769;SDS011;11046;49.558;8.674;2024-01-16T05:11:19;17.90;;;7.63;;
21769;SDS011;11046;49.558;8.674;2024-01-16T05:14:20;15.03;;;7.13;;
21769;SDS011;11046;49.558;8.674;2024-01-16T05:17:24;20.57;;;7.53;;
21769;SDS011;11046;49.558;8.674;2024-01-16T05:20:25;19.00;;;7.77;;
21769;SDS011;11046;49.558;8.674;2024-01-16T05:23:26;23.57;;;7.70;;
21769;SDS011;11046;49.558;8.674;2024-01-16T05:26:27;17.70;;;7.43;;
21769;SDS011;11046;49.558;8.674;2024-01-16T05:29:27;17.70;;;8.17;;
21769;SDS011;11046;49.558;8.674;2024-01-16T05:32:28;21.17;;;9.87;;
21769;SDS011;11046;49.558;8.674;2024-01-16T05:35:29;20.20;;;8.83;;
21769;SDS011;11046;49.558;8.674;2024-01-16T05:38:30;22.80;;;7.93;;
21769;SDS011;11046;49.558;8.674;2024-01-16T05:41:33;23.57;;;9.20;;
21769;SDS011;11046;49.558;8.674;2024-01-16T05:44:34;22.90;;;10.80;;
21769;SDS011;11046;49.558;8.674;2024-01-16T05:47:35;27.60;;;9.97;;
21769;SDS011;11046;49.558;8.674;2024-01-16T05:50:36;20.97;;;9.23;;
21769;SDS011;11046;49.558;8.674;2024-01-16T05:53:37;23.13;;;9.57;;
21769;SDS011;11046;49.558;8.674;2024-01-16T05:56:37;19.30;;;8.43;;
21769;SDS011;11046;49.558;8.674;2024-01-16T05:59:38;18.93;;;8.40;;
21769;SDS011;11046;49.558;8.674;2024-01-16T06:02:38;20.70;;;7.93;;
21769;SDS011;11046;49.558;8.674;2024-01-16T06:05:39;24.07;;;7.83;;
21769;SDS011;11046;49.558;8.674;2024-01-16T06:08:40;21.00;;;7.93;;
21769;SDS011;11046;49.558;8.674;2024-01-16T06:11:40;20.03;;;9.10;;
21769;SDS011;11046;49.558;8.674;2024-01-16T06:14:41;19.63;;;7.97;;
21769;SDS011;11046;49.558;8.674;2024-01-16T06:17:42;23.80;;;9.37;;
21769;SDS011;11046;49.558;8.674;2024-01-16T06:20:42;50.53;;;22.60;;
21769;SDS011;11046;49.558;8.674;2024-01-16T06:23:43;31.80;;;12.40;;
21769;SDS011;11046;49.558;8.674;2024-01-16T06:26:44;24.23;;;10.83;;
21769;SDS011;11046;49.558;8.674;2024-01-16T06:29:45;39.50;;;16.03;;
21769;SDS011;11046;49.558;8.674;2024-01-16T06:32:46;31.60;;;11.70;;
21769;SDS011;11046;49.558;8.674;2024-01-16T06:35:47;24.30;;;9.00;;
21769;SDS011;11046;49.558;8.674;2024-01-16T06:38:47;21.77;;;7.63;;
21769;SDS011;11046;49.558;8.674;2024-01-16T06:41:48;21.93;;;8.73;;
21769;SDS011;11046;49.558;8.674;2024-01-16T06:44:49;20.07;;;8.47;;
21769;SDS011;11046;49.558;8.674;2024-01-16T06:47:49;20.07;;;7.47;;
21769;SDS011;11046;49.558;8.674;2024-01-16T06:50:50;19.47;;;7.97;;
21769;SDS011;11046;49.558;8.674;2024-01-16T06:53:50;17.37;;;8.23;;
21769;SDS011;11046;49.558;8.674;2024-01-16T06:56:51;21.03;;;9.57;;
21769;SDS011;11046;49.558;8.674;2024-01-16T06:59:52;38.13;;;14.10;;
21769;SDS011;11046;49.558;8.674;2024-01-16T07:02:52;25.17;;;11.97;;
21769;SDS011;11046;49.558;8.674;2024-01-16T07:05:54;24.00;;;9.40;;
21769;SDS011;11046;49.558;8.674;2024-01-16T07:08:54;31.77;;;11.43;;
21769;SDS011;11046;49.558;8.674;2024-01-16T07:11:55;35.47;;;13.60;;
21769;SDS011;11046;49.558;8.674;2024-01-16T07:14:56;28.77;;;12.67;;
21769;SDS011;11046;49.558;8.674;2024-01-16T07:17:56;37.53;;;16.93;;
21769;SDS011;11046;49.558;8.674;2024-01-16T07:20:57;36.90;;;14.80;;
21769;SDS011;11046;49.558;8.674;2024-01-16T07:23:57;37.43;;;16.13;;
21769;SDS011;11046;49.558;8.674;2024-01-16T07:26:58;34.00;;;14.33;;
21769;SDS011;11046;49.558;8.674;2024-01-16T07:29:58;33.73;;;13.97;;
21769;SDS011;11046;49.558;8.674;2024-01-16T07:32:59;31.73;;;13.43;;
21769;SDS011;11046;49.558;8.674;2024-01-16T07:36:00;32.67;;;12.97;;
21769;SDS011;11046;49.558;8.674;2024-01-16T07:39:00;19.57;;;9.03;;
21769;SDS011;11046;49.558;8.674;2024-01-16T07:42:01;20.87;;;9.90;;
21769;SDS011;11046;49.558;8.674;2024-01-16T07:45:02;22.63;;;9.43;;
21769;SDS011;11046;49.558;8.674;2024-01-16T07:48:04;23.43;;;9.43;;
21769;SDS011;11046;49.558;8.674;2024-01-16T07:51:06;25.97;;;9.30;;
21769;SDS011;11046;49.558;8.674;2024-01-16T07:54:10;23.83;;;10.03;;
21769;SDS011;11046;49.558;8.674;2024-01-16T07:57:10;24.40;;;9.97;;
21769;SDS011;11046;49.558;8.674;2024-01-16T08:00:11;30.50;;;10.47;;
21769;SDS011;11046;49.558;8.674;2024-01-16T08:03:12;26.67;;;10.30;;
21769;SDS011;11046;49.558;8.674;2024-01-16T08:06:14;25.47;;;10.13;;
21769;SDS011;11046;49.558;8.674;2024-01-16T08:09:15;33.07;;;10.43;;
21769;SDS011;11046;49.558;8.674;2024-01-16T08:12:15;27.90;;;9.80;;
21769;SDS011;11046;49.558;8.674;2024-01-16T08:15:16;30.47;;;10.40;;
21769;SDS011;11046;49.558;8.674;2024-01-16T08:18:17;39.43;;;14.30;;
21769;SDS011;11046;49.558;8.674;2024-01-16T08:21:17;37.70;;;15.37;;
21769;SDS011;11046;49.558;8.674;2024-01-16T08:24:18;45.23;;;16.77;;
21769;SDS011;11046;49.558;8.674;2024-01-16T08:27:19;35.90;;;16.73;;
21769;SDS011;11046;49.558;8.674;2024-01-16T08:30:19;33.97;;;13.53;;
21769;SDS011;11046;49.558;8.674;2024-01-16T08:33:20;34.57;;;11.63;;
21769;SDS011;11046;49.558;8.674;2024-01-16T08:36:22;35.53;;;13.23;;
21769;SDS011;11046;49.558;8.674;2024-01-16T08:39:22;30.13;;;10.73;;
21769;SDS011;11046;49.558;8.674;2024-01-16T08:42:24;30.73;;;10.77;;
21769;SDS011;11046;49.558;8.674;2024-01-16T08:45:24;24.43;;;9.73;;
21769;SDS011;11046;49.558;8.674;2024-01-16T08:48:26;22.57;;;9.53;;
21769;SDS011;11046;49.558;8.674;2024-01-16T08:51:26;28.87;;;11.47;;
21769;SDS011;11046;49.558;8.674;2024-01-16T08:54:27;32.00;;;13.17;;
21769;SDS011;11046;49.558;8.674;2024-01-16T08:57:27;30.20;;;13.03;;
21769;SDS011;11046;49.558;8.674;2024-01-16T09:00:28;27.10;;;10.80;;
21769;SDS011;11046;49.558;8.674;2024-01-16T09:03:29;28.27;;;11.53;;
21769;SDS011;11046;49.558;8.674;2024-01-16T09:06:30;22.63;;;9.20;;
21769;SDS011;11046;49.558;8.674;2024-01-16T09:09:30;27.80;;;11.03;;
21769;SDS011;11046;49.558;8.674;2024-01-16T09:12:31;28.90;;;10.70;;
21769;SDS011;11046;49.558;8.674;2024-01-16T09:15:32;26.13;;;10.57;;
21769;SDS011;11046;49.558;8.674;2024-01-16T09:18:32;25.53;;;10.00;;
21769;SDS011;11046;49.558;8.674;2024-01-16T09:21:33;24.37;;;9.97;;
21769;SDS011;11046;49.558;8.674;2024-01-16T09:24:34;25.63;;;9.77;;
21769;SDS011;11046;49.558;8.674;2024-01-16T09:27:34;30.73;;;10.77;;
21769;SDS011;11046;49.558;8.674;2024-01-16T09:30:35;20.27;;;10.17;;
21769;SDS011;11046;49.558;8.674;2024-01-16T09:33:36;26.33;;;10.83;;
21769;SDS011;11046;49.558;8.674;2024-01-16T09:36:36;26.50;;;10.93;;
21769;SDS011;11046;49.558;8.674;2024-01-16T09:39:37;26.07;;;9.97;;
21769;SDS011;11046;49.558;8.674;2024-01-16T09:42:38;24.23;;;10.03;;
21769;SDS011;11046;49.558;8.674;2024-01-16T09:45:38;23.77;;;10.17;;
21769;SDS011;11046;49.558;8.674;2024-01-16T09:48:39;28.97;;;9.97;;
21769;SDS011;11046;49.558;8.674;2024-01-16T09:51:42;31.67;;;9.87;;
21769;SDS011;11046;49.558;8.674;2024-01-16T09:54:43;23.80;;;10.03;;
21769;SDS011;11046;49.558;8.674;2024-01-16T09:57:45;21.97;;;9.77;;
21769;SDS011;11046;49.558;8.674;2024-01-16T10:00:46;21.27;;;9.20;;
21769;SDS011;11046;49.558;8.674;2024-01-16T10:03:46;26.17;;;10.23;;
21769;SDS011;11046;49.558;8.674;2024-01-16T10:06:47;28.27;;;9.73;;
21769;SDS011;11046;49.558;8.674;2024-01-16T10:09:48;22.53;;;9.07;;
21769;SDS011;11046;49.558;8.674;2024-01-16T10:12:49;25.13;;;9.67;;
21769;SDS011;11046;49.558;8.674;2024-01-16T10:15:50;23.63;;;9.00;;
21769;SDS011;11046;49.558;8.674;2024-01-16T10:18:55;25.30;;;9.43;;
21769;SDS011;11046;49.558;8.674;2024-01-16T10:22:05;22.37;;;9.60;;
21769;SDS011;11046;49.558;8.674;2024-01-16T10:25:09;24.60;;;10.13;;
21769;SDS011;11046;49.558;8.674;2024-01-16T10:28:19;22.03;;;9.57;;
21769;SDS011;11046;49.558;8.674;2024-01-16T10:31:20;23.73;;;9.57;;
21769;SDS011;11046;49.558;8.674;2024-01-16T10:34:29;24.77;;;9.60;;
21769;SDS011;11046;49.558;8.674;2024-01-16T10:37:31;23.23;;;10.40;;
21769;SDS011;11046;49.558;8.674;2024-01-16T10:40:42;27.33;;;9.70;;
21769;SDS011;11046;49.558;8.674;2024-01-16T10:43:43;21.00;;;9.40;;
21769;SDS011;11046;49.558;8.674;2024-01-16T10:46:44;22.23;;;10.30;;
21769;SDS011;11046;49.558;8.674;2024-01-16T10:49:44;23.80;;;8.90;;
21769;SDS011;11046;49.558;8.674;2024-01-16T10:52:48;23.97;;;9.80;;
21769;SDS011;11046;49.558;8.674;2024-01-16T10:55:50;29.83;;;12.30;;
21769;SDS011;11046;49.558;8.674;2024-01-16T10:58:55;22.03;;;10.10;;
21769;SDS011;11046;49.558;8.674;2024-01-16T11:02:14;24.33;;;10.00;;
21769;SDS011;11046;49.558;8.674;2024-01-16T11:05:17;25.43;;;10.43;;
21769;SDS011;11046;49.558;8.674;2024-01-16T11:08:18;29.10;;;10.70;;
21769;SDS011;11046;49.558;8.674;2024-01-16T11:11:21;21.03;;;9.47;;
21769;SDS011;11046;49.558;8.674;2024-01-16T11:14:22;21.50;;;9.37;;
21769;SDS011;11046;49.558;8.674;2024-01-16T11:17:24;21.30;;;9.93;;
21769;SDS011;11046;49.558;8.674;2024-01-16T11:20:25;30.97;;;10.37;;
21769;SDS011;11046;49.558;8.674;2024-01-16T11:23:27;24.13;;;10.63;;
21769;SDS011;11046;49.558;8.674;2024-01-16T11:26:31;28.03;;;11.03;;
21769;SDS011;11046;49.558;8.674;2024-01-16T11:29:34;25.53;;;9.73;;
21769;SDS011;11046;49.558;8.674;2024-01-16T11:32:39;21.17;;;10.07;;
21769;SDS011;11046;49.558;8.674;2024-01-16T11:35:40;21.87;;;9.40;;
21769;SDS011;11046;49.558;8.674;2024-01-16T11:38:41;19.43;;;9.50;;
21769;SDS011;11046;49.558;8.674;2024-01-16T11:41:48;25.80;;;9.60;;
21769;SDS011;11046;49.558;8.674;2024-01-16T11:44:51;22.90;;;9.60;;
21769;SDS011;11046;49.558;8.674;2024-01-16T11:48:08;24.30;;;9.70;;
21769;SDS011;11046;49.558;8.674;2024-01-16T11:51:33;19.30;;;8.83;;
21769;SDS011;11046;49.558;8.674;2024-01-16T11:54:41;24.60;;;9.73;;
21769;SDS011;11046;49.558;8.674;2024-01-16T11:57:50;20.77;;;8.97;;
21769;SDS011;11046;49.558;8.674;2024-01-16T12:01:03;22.20;;;9.10;;
21769;SDS011;11046;49.558;8.674;2024-01-16T12:04:06;18.23;;;8.90;;
21769;SDS011;11046;49.558;8.674;2024-01-16T12:07:07;20.93;;;7.97;;
21769;SDS011;11046;49.558;8.674;2024-01-16T12:10:08;23.47;;;9.63;;
21769;SDS011;11046;49.558;8.674;2024-01-16T12:13:09;20.83;;;8.70;;
21769;SDS011;11046;49.558;8.674;2024-01-16T12:16:12;18.63;;;8.93;;
21769;SDS011;11046;49.558;8.674;2024-01-16T12:19:13;19.53;;;9.23;;
21769;SDS011;11046;49.558;8.674;2024-01-16T12:22:13;20.07;;;8.17;;
21769;SDS011;11046;49.558;8.674;2024-01-16T12:25:18;20.67;;;9.30;;
21769;SDS011;11046;49.558;8.674;2024-01-16T12:28:22;21.97;;;8.73;;
21769;SDS011;11046;49.558;8.674;2024-01-16T12:31:23;21.97;;;8.60;;
21769;SDS011;11046;49.558;8.674;2024-01-16T12:34:24;21.20;;;8.80;;
21769;SDS011;11046;49.558;8.674;2024-01-16T12:37:25;19.73;;;8.57;;
21769;SDS011;11046;49.558;8.674;2024-01-16T12:40:25;21.53;;;8.40;;
21769;SDS011;11046;49.558;8.674;2024-01-16T12:43:27;17.67;;;8.53;;
21769;SDS011;11046;49.558;8.674;2024-01-16T12:46:27;32.47;;;12.43;;
21769;SDS011;11046;49.558;8.674;2024-01-16T12:49:28;18.73;;;9.07;;
21769;SDS011;11046;49.558;8.674;2024-01-16T12:52:30;25.20;;;8.43;;
21769;SDS011;11046;49.558;8.674;2024-01-16T12:55:33;23.43;;;8.67;;
21769;SDS011;11046;49.558;8.674;2024-01-16T12:58:35;20.13;;;8.87;;
21769;SDS011;11046;49.558;8.674;2024-01-16T13:01:39;20.63;;;8.27;;
21769;SDS011;11046;49.558;8.674;2024-01-16T13:04:41;23.50;;;8.07;;
21769;SDS011;11046;49.558;8.674;2024-01-16T13:07:42;18.37;;;8.30;;
21769;SDS011;11046;49.558;8.674;2024-01-16T13:10:43;19.67;;;8.50;;
21769;SDS011;11046;49.558;8.674;2024-01-16T13:13:43;19.77;;;8.47;;
21769;SDS011;11046;49.558;8.674;2024-01-16T13:16:44;16.07;;;7.50;;
21769;SDS011;11046;49.558;8.674;2024-01-16T13:19:45;18.47;;;7.83;;
21769;SDS011;11046;49.558;8.674;2024-01-16T13:22:46;18.00;;;7.67;;
21769;SDS011;11046;49.558;8.674;2024-01-16T13:25:48;19.33;;;7.73;;
21769;SDS011;11046;49.558;8.674;2024-01-16T13:28:49;19.43;;;6.93;;
21769;SDS011;11046;49.558;8.674;2024-01-16T13:31:50;20.60;;;8.30;;
21769;SDS011;11046;49.558;8.674;2024-01-16T13:34:55;17.43;;;7.40;;
21769;SDS011;11046;49.558;8.674;2024-01-16T13:37:55;16.10;;;6.87;;
21769;SDS011;11046;49.558;8.674;2024-01-16T13:40:56;17.60;;;6.63;;
21769;SDS011;11046;49.558;8.674;2024-01-16T13:43:56;15.70;;;6.70;;
21769;SDS011;11046;49.558;8.674;2024-01-16T13:46:57;19.27;;;7.70;;
21769;SDS011;11046;49.558;8.674;2024-01-16T13:49:57;14.87;;;6.07;;
21769;SDS011;11046;49.558;8.674;2024-01-16T13:52:58;17.40;;;7.80;;
21769;SDS011;11046;49.558;8.674;2024-01-16T13:56:02;14.37;;;6.70;;
21769;SDS011;11046;49.558;8.674;2024-01-16T13:59:03;26.37;;;7.53;;
21769;SDS011;11046;49.558;8.674;2024-01-16T14:02:04;15.77;;;6.63;;
21769;SDS011;11046;49.558;8.674;2024-01-16T14:05:07;17.97;;;8.13;;
21769;SDS011;11046;49.558;8.674;2024-01-16T14:08:11;15.70;;;7.70;;
21769;SDS011;11046;49.558;8.674;2024-01-16T14:11:13;16.83;;;7.10;;
21769;SDS011;11046;49.558;8.674;2024-01-16T14:14:13;11.67;;;5.67;;
21769;SDS011;11046;49.558;8.674;2024-01-16T14:17:14;17.77;;;6.60;;
21769;SDS011;11046;49.558;8.674;2024-01-16T14:20:15;29.67;;;7.20;;
21769;SDS011;11046;49.558;8.674;2024-01-16T14:23:16;18.03;;;6.50;;
21769;SDS011;11046;49.558;8.674;2024-01-16T14:26:17;15.57;;;6.20;;
21769;SDS011;11046;49.558;8.674;2024-01-16T14:29:17;15.37;;;6.33;;
21769;SDS011;11046;49.558;8.674;2024-01-16T14:32:21;18.97;;;6.53;;
21769;SDS011;11046;49.558;8.674;2024-01-16T14:35:22;19.70;;;8.07;;
21769;SDS011;11046;49.558;8.674;2024-01-16T14:38:24;20.20;;;7.70;;
21769;SDS011;11046;49.558;8.674;2024-01-16T14:41:25;26.00;;;9.43;;
21769;SDS011;11046;49.558;8.674;2024-01-16T14:44:25;22.87;;;8.33;;
21769;SDS011;11046;49.558;8.674;2024-01-16T14:47:26;21.23;;;8.57;;
21769;SDS011;11046;49.558;8.674;2024-01-16T14:50:26;15.53;;;6.03;;
21769;SDS011;11046;49.558;8.674;2024-01-16T14:53:27;16.00;;;6.87;;
21769;SDS011;11046;49.558;8.674;2024-01-16T14:56:27;18.43;;;6.20;;
21769;SDS011;11046;49.558;8.674;2024-01-16T14:59:28;15.20;;;6.77;;
21769;SDS011;11046;49.558;8.674;2024-01-16T15:02:29;21.70;;;6.97;;
21769;SDS011;11046;49.558;8.674;2024-01-16T15:05:29;21.20;;;7.53;;
21769;SDS011;11046;49.558;8.674;2024-01-16T15:08:31;24.97;;;7.60;;
21769;SDS011;11046;49.558;8.674;2024-01-16T15:11:32;20.37;;;6.93;;
21769;SDS011;11046;49.558;8.674;2024-01-16T15:14:33;19.93;;;7.20;;
21769;SDS011;11046;49.558;8.674;2024-01-16T15:17:34;18.63;;;7.47;;
21769;SDS011;11046;49.558;8.674;2024-01-16T15:20:34;18.47;;;7.33;;
21769;SDS011;11046;49.558;8.674;2024-01-16T15:23:35;25.03;;;9.67;;
21769;SDS011;11046;49.558;8.674;2024-01-16T15:26:36;25.03;;;9.13;;
21769;SDS011;11046;49.558;8.674;2024-01-16T15:29:37;19.03;;;7.80;;
21769;SDS011;11046;49.558;8.674;2024-01-16T15:32:37;23.23;;;9.93;;
21769;SDS011;11046;49.558;8.674;2024-01-16T15:35:38;19.97;;;9.80;;
21769;SDS011;11046;49.558;8.674;2024-01-16T15:38:38;31.97;;;12.27;;
21769;SDS011;11046;49.558;8.674;2024-01-16T15:41:39;32.90;;;11.33;;
21769;SDS011;11046;49.558;8.674;2024-01-16T15:44:39;22.57;;;9.90;;
21769;SDS011;11046;49.558;8.674;2024-01-16T15:47:40;33.80;;;13.40;;
21769;SDS011;11046;49.558;8.674;2024-01-16T15:50:41;22.30;;;9.17;;
21769;SDS011;11046;49.558;8.674;2024-01-16T15:53:41;18.07;;;7.53;;
21769;SDS011;11046;49.558;8.674;2024-01-16T15:56:42;16.53;;;7.63;;
21769;SDS011;11046;49.558;8.674;2024-01-16T15:59:43;19.47;;;7.83;;
21769;SDS011;11046;49.558;8.674;2024-01-16T16:02:44;16.47;;;8.23;;
21769;SDS011;11046;49.558;8.674;2024-01-16T16:05:48;21.43;;;9.03;;
21769;SDS011;11046;49.558;8.674;2024-01-16T16:08:48;19.30;;;8.90;;
21769;SDS011;11046;49.558;8.674;2024-01-16T16:11:49;26.23;;;9.57;;
21769;SDS011;11046;49.558;8.674;2024-01-16T16:14:50;24.67;;;9.57;;
21769;SDS011;11046;49.558;8.674;2024-01-16T16:17:50;26.20;;;9.70;;
21769;SDS011;11046;49.558;8.674;2024-01-16T16:20:51;21.67;;;8.97;;
21769;SDS011;11046;49.558;8.674;2024-01-16T16:23:51;32.47;;;12.10;;
21769;SDS011;11046;49.558;8.674;2024-01-16T16:26:53;31.37;;;10.90;;
21769;SDS011;11046;49.558;8.674;2024-01-16T16:29:56;34.07;;;12.17;;
21769;SDS011;11046;49.558;8.674;2024-01-16T16:32:58;29.97;;;11.73;;
21769;SDS011;11046;49.558;8.674;2024-01-16T16:35:58;24.60;;;10.67;;
21769;SDS011;11046;49.558;8.674;2024-01-16T16:38:59;31.40;;;12.10;;
21769;SDS011;11046;49.558;8.674;2024-01-16T16:41:59;31.47;;;13.30;;
21769;SDS011;11046;49.558;8.674;2024-01-16T16:45:00;32.67;;;14.63;;
21769;SDS011;11046;49.558;8.674;2024-01-16T16:48:01;27.60;;;14.20;;
21769;SDS011;11046;49.558;8.674;2024-01-16T16:51:02;33.97;;;15.27;;
21769;SDS011;11046;49.558;8.674;2024-01-16T16:54:02;34.53;;;14.50;;
21769;SDS011;11046;49.558;8.674;2024-01-16T16:57:03;29.73;;;12.60;;
21769;SDS011;11046;49.558;8.674;2024-01-16T17:00:04;40.30;;;15.77;;
21769;SDS011;11046;49.558;8.674;2024-01-16T17:03:06;47.83;;;19.77;;
21769;SDS011;11046;49.558;8.674;2024-01-16T17:06:08;40.20;;;17.97;;
21769;SDS011;11046;49.558;8.674;2024-01-16T17:09:08;36.60;;;17.00;;
21769;SDS011;11046;49.558;8.674;2024-01-16T17:12:11;26.03;;;12.20;;
21769;SDS011;11046;49.558;8.674;2024-01-16T17:15:13;26.73;;;12.27;;
21769;SDS011;11046;49.558;8.674;2024-01-16T17:18:14;23.03;;;11.30;;
21769;SDS011;11046;49.558;8.674;2024-01-16T17:21:15;23.83;;;10.80;;
21769;SDS011;11046;49.558;8.674;2024-01-16T17:24:16;24.23;;;10.03;;
21769;SDS011;11046;49.558;8.674;2024-01-16T17:27:17;23.73;;;10.37;;
21769;SDS011;11046;49.558;8.674;2024-01-16T17:30:17;22.43;;;10.40;;
21769;SDS011;11046;49.558;8.674;2024-01-16T17:33:18;36.27;;;14.53;;
21769;SDS011;11046;49.558;8.674;2024-01-16T17:36:19;35.43;;;14.70;;
21769;SDS011;11046;49.558;8.674;2024-01-16T17:39:20;42.50;;;16.20;;
21769;SDS011;11046;49.558;8.674;2024-01-16T17:42:21;37.73;;;16.10;;
21769;SDS011;11046;49.558;8.674;2024-01-16T17:45:22;33.77;;;15.60;;
21769;SDS011;11046;49.558;8.674;2024-01-16T17:48:23;42.67;;;17.40;;
21769;SDS011;11046;49.558;8.674;2024-01-16T17:51:24;39.80;;;16.50;;
21769;SDS011;11046;49.558;8.674;2024-01-16T17:54:25;42.40;;;16.73;;